METAR Data
IDs: Format: Raw Decoded Include TAF

Data at: 1939 UTC 26 Sep 2021

METAR for:KCAE (Columbia Metro, SC, US)
Text:KCAE 261856Z VRB03KT 10SM FEW060 28/13 A3007 RMK AO2 SLP180 T02780128
Temperature: 27.8°C ( 82°F)
Dewpoint: 12.8°C ( 55°F) [RH = 40%]
Pressure (altimeter):30.07 inches Hg (1018.4 mb) [Sea level pressure: 1018.0 mb]
Winds:variable direction winds at 3 MPH (3 knots; 1.5 m/s)
Visibility:10 or more sm (16+ km)
Ceiling:at least 12,000 feet AGL
Clouds: few clouds at 6000 feet AGL

TAF for:KCAE (Columbia Metro, SC, US) issued at 1731 UTC 26 Sep 2021
Text:KCAE 261731Z 2618/2718 VRB03KT P6SM FEW050
Forecast period:1800 UTC 26 September 2021 to 0100 UTC 27 September 2021
Forecast type:FROM: standard forecast or significant change
Winds:variable direction winds at 3 MPH (3 knots; 1.5 m/s)
Visibility:6 or more sm (10+ km)
Ceiling:at least 12,000 feet AGL
Clouds: few clouds at 5000 feet AGL
Text:FM270100 00000KT P6SM SKC
Forecast period:0100 to 1600 UTC 27 September 2021
Forecast type:FROM: standard forecast or significant change
Winds:calm
Visibility:6 or more sm (10+ km)
Ceiling:at least 12,000 feet AGL
Clouds:clear skies
Text:FM271600 22006KT P6SM FEW050
Forecast period:1600 to 1800 UTC 27 September 2021
Forecast type:FROM: standard forecast or significant change
Winds:from the SW (220 degrees) at 7 MPH (6 knots; 3.1 m/s)
Visibility:6 or more sm (10+ km)
Ceiling:at least 12,000 feet AGL
Clouds: few clouds at 5000 feet AGL